Terminal Aerodrome Forecast
Issued by NWS

Home | Current Version | Previous Version | Text Only | Print | Product List | Glossary On
Versions: 1 2 3 4 5 6 7 8 9 10 11 12 13 14 15 16 17 18 19 20 21 22 23 24 25 26 27 28 29 30 31 32 33 34 35 36 37
000
FTUS43 KDVN 040611 AAA
TAFCID
TAF AMD
KCID 040611Z 0406/0506 13009KT P6SM SCT024 OVC070
      TEMPO 0406/0408 5SM -SN BR OVC024
     FM040800 14007KT 3SM -SN BR SCT009 OVC020
     FM041100 14008KT 2SM -SN BR OVC007
     FM041500 17010KT 1SM -SN BR OVC004
     FM042100 22006KT 4SM BR OVC007
     FM050200 24006KT 5SM BR OVC015=

USA.gov is the U.S. government's official web portal to all federal, state and local government web resources and services.